createdAt,value
2019-02-11T00:01:16.577Z,3.90
2019-02-11T00:03:47.182Z,3.90
2019-02-11T00:06:17.795Z,3.90
2019-02-11T00:08:48.148Z,3.80
2019-02-11T00:11:18.722Z,3.90
2019-02-11T00:13:49.297Z,3.90
2019-02-11T00:16:19.807Z,3.90
2019-02-11T00:18:50.451Z,3.90
2019-02-11T00:21:20.739Z,3.90
2019-02-11T00:23:50.920Z,3.90
2019-02-11T00:26:21.101Z,3.90
2019-02-11T00:28:51.590Z,3.90
2019-02-11T00:31:22.260Z,3.90
2019-02-11T00:33:52.848Z,3.80
2019-02-11T00:36:23.972Z,3.80
2019-02-11T00:38:54.414Z,3.70
2019-02-11T00:41:24.648Z,3.70
2019-02-11T00:43:55.184Z,3.60
2019-02-11T00:46:25.019Z,3.60
2019-02-11T00:48:55.316Z,3.50
2019-02-11T00:51:25.946Z,3.50
2019-02-11T00:53:56.150Z,3.50
2019-02-11T00:56:26.808Z,3.50
2019-02-11T00:58:57.012Z,3.50
2019-02-11T01:01:27.634Z,3.60
2019-02-11T01:03:58.206Z,3.60
2019-02-11T01:06:28.820Z,3.60
2019-02-11T01:08:59.021Z,3.60
2019-02-11T01:11:29.180Z,3.60
2019-02-11T01:13:59.688Z,3.60
2019-02-11T01:16:30.261Z,3.60
2019-02-11T01:19:00.467Z,3.60
2019-02-11T01:21:30.739Z,3.50
2019-02-11T01:24:00.774Z,3.50
2019-02-11T01:26:31.022Z,3.50
2019-02-11T01:29:01.650Z,3.60
2019-02-11T01:31:32.224Z,3.60
2019-02-11T01:34:02.443Z,3.60
2019-02-11T01:36:33.084Z,3.60
2019-02-11T01:39:03.364Z,3.60
2019-02-11T01:41:33.841Z,3.60
2019-02-11T01:44:04.568Z,3.60
2019-02-11T01:46:35.204Z,3.60
2019-02-11T01:49:05.779Z,3.60
2019-02-11T01:51:36.358Z,3.60
2019-02-11T01:54:06.842Z,3.50
2019-02-11T01:56:38.247Z,3.50
2019-02-11T01:59:08.548Z,3.50
2019-02-11T02:01:38.718Z,3.50
2019-02-11T02:04:08.902Z,3.50
2019-02-11T02:06:39.538Z,3.50
2019-02-11T02:09:11.242Z,3.50
2019-02-11T02:11:41.449Z,3.50
2019-02-11T02:14:11.783Z,3.50
2019-02-11T02:16:42.473Z,3.50
2019-02-11T02:19:12.982Z,3.40
2019-02-11T02:21:43.546Z,3.40
2019-02-11T02:24:13.405Z,3.40
2019-02-11T02:26:43.641Z,3.40
2019-02-11T02:29:13.849Z,3.40
2019-02-11T02:31:44.319Z,3.40
2019-02-11T02:34:14.791Z,3.40
2019-02-11T02:36:45.337Z,3.40
2019-02-11T02:39:16.906Z,3.30
2019-02-11T02:41:47.470Z,3.30
2019-02-11T02:44:18.017Z,3.40
2019-02-11T02:46:48.574Z,3.40
2019-02-11T02:49:37.754Z,3.40
2019-02-11T02:52:08.351Z,3.40
2019-02-11T02:54:38.564Z,3.40
2019-02-11T02:57:09.124Z,3.40
2019-02-11T02:59:39.683Z,3.40
2019-02-11T03:02:10.003Z,3.30
2019-02-11T03:04:40.526Z,3.30
2019-02-11T03:07:11.011Z,3.30
2019-02-11T03:09:41.569Z,3.30
2019-02-11T03:12:12.076Z,3.30
2019-02-11T03:14:42.534Z,3.30
2019-02-11T03:17:13.146Z,3.20
2019-02-11T03:20:02.358Z,3.20
2019-02-11T03:22:32.752Z,3.20
2019-02-11T03:25:03.305Z,3.20
2019-02-11T03:27:33.423Z,3.10
2019-02-11T03:30:03.998Z,3.10
2019-02-11T03:32:34.457Z,3.10
2019-02-11T03:35:04.853Z,3.10
2019-02-11T03:37:35.393Z,3.10
2019-02-11T03:40:05.789Z,3.00
2019-02-11T03:42:36.258Z,3.00
2019-02-11T03:45:08.088Z,3.00
2019-02-11T03:47:38.675Z,3.10
2019-02-11T03:50:09.559Z,3.10
2019-02-11T03:52:40.066Z,3.10
2019-02-11T03:55:10.292Z,3.10
2019-02-11T03:57:40.818Z,3.10
2019-02-11T04:00:11.696Z,3.10
2019-02-11T04:02:42.205Z,3.10
2019-02-11T04:05:12.703Z,3.10
2019-02-11T04:07:42.869Z,3.10
2019-02-11T04:10:12.541Z,3.00
2019-02-11T04:12:43.175Z,3.00
2019-02-11T04:15:13.881Z,3.00
2019-02-11T04:17:44.374Z,3.00
2019-02-11T04:20:14.867Z,3.00
2019-02-11T04:22:45.430Z,3.10
2019-02-11T04:25:15.663Z,3.00
2019-02-11T04:27:46.267Z,3.10
2019-02-11T04:30:16.747Z,3.00
2019-02-11T04:32:47.251Z,3.10
2019-02-11T04:35:17.778Z,3.00
2019-02-11T04:37:48.023Z,3.10
2019-02-11T04:40:18.226Z,3.10
2019-02-11T04:42:48.818Z,3.00
2019-02-11T04:45:37.726Z,3.00
2019-02-11T04:48:08.211Z,3.00
2019-02-11T04:50:38.662Z,3.00
2019-02-11T04:53:09.062Z,3.00
2019-02-11T04:55:39.661Z,3.00
2019-02-11T04:58:10.113Z,2.90
2019-02-11T05:00:40.562Z,2.90
2019-02-11T05:03:11.118Z,2.90
2019-02-11T05:05:41.620Z,2.90
2019-02-11T05:08:11.488Z,2.90
2019-02-11T05:10:41.788Z,2.90
2019-02-11T05:13:11.992Z,2.90
2019-02-11T05:15:42.410Z,2.90
2019-02-11T05:18:12.889Z,2.90
2019-02-11T05:20:43.395Z,2.80
2019-02-11T05:23:13.736Z,2.80
2019-02-11T05:25:43.892Z,2.80
2019-02-11T05:28:14.494Z,2.70
2019-02-11T05:30:44.737Z,2.70
2019-02-11T05:33:15.163Z,2.60
2019-02-11T05:35:45.743Z,2.60
2019-02-11T05:38:16.414Z,2.60
2019-02-11T05:40:47.028Z,2.60
2019-02-11T05:43:17.587Z,2.50
2019-02-11T05:45:48.118Z,2.50
2019-02-11T05:48:18.650Z,2.40
2019-02-11T05:50:49.327Z,2.40
2019-02-11T05:53:19.532Z,2.30
2019-02-11T05:55:50.010Z,2.30
2019-02-11T05:58:20.453Z,2.30
2019-02-11T06:00:50.726Z,2.30
2019-02-11T06:03:20.887Z,2.30
2019-02-11T06:05:51.066Z,2.30
2019-02-11T06:08:21.392Z,2.30
2019-02-11T06:11:11.872Z,2.20
2019-02-11T06:13:42.389Z,2.20
2019-02-11T06:16:12.876Z,2.10
2019-02-11T06:18:42.657Z,2.10
2019-02-11T06:21:12.826Z,2.10
2019-02-11T06:23:43.382Z,2.00
2019-02-11T06:26:13.618Z,2.00
2019-02-11T06:28:43.458Z,1.90
2019-02-11T06:31:13.792Z,1.90
2019-02-11T06:33:44.272Z,1.90
2019-02-11T06:36:14.838Z,1.90
2019-02-11T06:38:45.074Z,1.80
2019-02-11T06:41:15.296Z,1.80
2019-02-11T06:43:45.526Z,1.80
2019-02-11T06:46:16.124Z,1.70
2019-02-11T06:48:46.348Z,1.70
2019-02-11T06:51:16.602Z,1.70
2019-02-11T06:53:47.100Z,1.70
2019-02-11T06:56:17.055Z,1.60
2019-02-11T06:58:47.276Z,1.60
2019-02-11T07:01:17.856Z,1.70
2019-02-11T07:03:48.023Z,1.60
2019-02-11T07:06:37.200Z,1.70
2019-02-11T07:09:08.178Z,1.70
2019-02-11T07:11:38.636Z,1.70
2019-02-11T07:14:08.894Z,1.60
2019-02-11T07:16:39.362Z,1.70
2019-02-11T07:19:09.616Z,1.70
2019-02-11T07:21:40.268Z,1.70
2019-02-11T07:24:10.750Z,1.70
2019-02-11T07:26:41.030Z,1.70
2019-02-11T07:29:11.222Z,1.70
2019-02-11T07:31:41.126Z,1.70
2019-02-11T07:34:11.579Z,1.70
2019-02-11T07:36:41.894Z,1.80
2019-02-11T07:39:12.180Z,1.80
2019-02-11T07:42:29.251Z,1.80
2019-02-11T07:45:02.670Z,1.70
2019-02-11T07:47:32.822Z,1.80
2019-02-11T07:50:21.812Z,1.80
2019-02-11T07:52:52.033Z,1.90
2019-02-11T07:55:22.279Z,1.90
2019-02-11T07:57:52.782Z,1.90
2019-02-11T08:00:23.484Z,1.90
2019-02-11T08:02:54.024Z,2.00
2019-02-11T08:05:24.293Z,2.00
2019-02-11T08:07:54.924Z,2.00
2019-02-11T08:10:25.428Z,2.00
2019-02-11T08:12:55.996Z,2.00
2019-02-11T08:15:26.477Z,2.00
2019-02-11T08:17:58.177Z,2.10
2019-02-11T08:20:28.902Z,2.10
2019-02-11T08:22:59.518Z,2.10
2019-02-11T08:25:29.756Z,2.10
2019-02-11T08:28:00.363Z,2.10
2019-02-11T08:30:31.122Z,2.10
2019-02-11T08:33:01.381Z,2.20
2019-02-11T08:35:31.560Z,2.10
2019-02-11T08:38:02.196Z,2.20
2019-02-11T08:40:32.956Z,2.10
2019-02-11T08:43:03.456Z,2.10
2019-02-11T08:45:33.582Z,2.10
2019-02-11T08:48:03.806Z,2.10
2019-02-11T08:50:34.398Z,2.10
2019-02-11T08:53:05.096Z,2.10
2019-02-11T08:55:35.606Z,2.10
2019-02-11T08:58:06.243Z,2.10
2019-02-11T09:00:36.382Z,2.20
2019-02-11T09:03:06.550Z,2.20
2019-02-11T09:05:37.111Z,2.20
2019-02-11T09:08:07.279Z,2.20
2019-02-11T09:10:37.858Z,2.30
2019-02-11T09:13:08.501Z,2.40
2019-02-11T09:15:38.724Z,2.40
2019-02-11T09:18:08.622Z,2.50
2019-02-11T09:20:38.776Z,2.50
2019-02-11T09:23:08.918Z,2.60
2019-02-11T09:25:39.642Z,2.60
2019-02-11T09:28:10.378Z,2.70
2019-02-11T09:30:40.416Z,2.80
2019-02-11T09:33:10.261Z,2.80
2019-02-11T09:35:40.788Z,2.80
2019-02-11T09:38:11.292Z,2.80
2019-02-11T09:40:41.855Z,2.80
2019-02-11T09:43:12.485Z,2.80
2019-02-11T09:45:43.073Z,2.90
2019-02-11T09:48:13.531Z,2.90
2019-02-11T09:50:46.534Z,3.00
2019-02-11T09:53:17.062Z,2.90
2019-02-11T09:55:47.316Z,3.00
2019-02-11T09:58:17.492Z,3.00
2019-02-11T10:00:48.160Z,3.00
2019-02-11T10:03:18.686Z,2.90
2019-02-11T10:05:49.344Z,2.90
2019-02-11T10:08:19.922Z,2.90
2019-02-11T10:10:50.623Z,2.80
2019-02-11T10:13:20.810Z,2.80
2019-02-11T10:15:50.717Z,2.80
2019-02-11T10:18:21.426Z,2.80
2019-02-11T10:20:51.282Z,2.80
2019-02-11T10:23:21.607Z,2.90
2019-02-11T10:25:52.084Z,2.90
2019-02-11T10:28:22.268Z,2.90
2019-02-11T10:30:51.763Z,2.90
2019-02-11T10:33:22.301Z,3.00
2019-02-11T10:35:52.980Z,3.00
2019-02-11T10:38:23.423Z,3.10
2019-02-11T10:40:53.680Z,3.00
2019-02-11T10:43:23.912Z,3.10
2019-02-11T10:45:54.133Z,3.10
2019-02-11T10:48:25.478Z,3.10
2019-02-11T10:50:55.827Z,3.10
2019-02-11T10:53:26.331Z,3.10
2019-02-11T10:55:56.866Z,3.10
2019-02-11T10:58:27.136Z,3.00
2019-02-11T11:00:57.404Z,3.00
2019-02-11T11:03:27.708Z,3.00
2019-02-11T11:05:58.256Z,3.10
2019-02-11T11:08:28.930Z,3.10
2019-02-11T11:10:59.254Z,3.10
2019-02-11T11:13:29.436Z,3.10
2019-02-11T11:15:59.315Z,3.10
2019-02-11T11:18:28.810Z,3.10
2019-02-11T11:20:58.985Z,3.10
2019-02-11T11:23:29.433Z,3.10
2019-02-11T11:25:59.912Z,3.20
2019-02-11T11:28:29.882Z,3.10
2019-02-11T11:31:00.084Z,3.10
2019-02-11T11:33:30.423Z,3.10
2019-02-11T11:36:00.710Z,3.10
2019-02-11T11:38:30.506Z,3.10
2019-02-11T11:41:01.136Z,3.10
2019-02-11T11:43:31.362Z,3.10
2019-02-11T11:46:01.977Z,3.10
2019-02-11T11:48:32.224Z,3.10
2019-02-11T11:51:03.432Z,3.10
2019-02-11T11:53:33.648Z,3.10
2019-02-11T11:56:03.925Z,3.10
2019-02-11T11:58:34.085Z,3.10
2019-02-11T12:01:05.046Z,3.10
2019-02-11T12:03:35.682Z,3.10
2019-02-11T12:06:05.930Z,3.20
2019-02-11T12:08:36.589Z,3.20
2019-02-11T12:11:07.368Z,3.30
2019-02-11T12:13:37.599Z,3.40
2019-02-11T12:16:07.948Z,3.40
2019-02-11T12:18:38.574Z,3.50
2019-02-11T12:21:09.130Z,3.50
2019-02-11T12:23:39.689Z,3.60
2019-02-11T12:26:10.322Z,3.70
2019-02-11T12:28:40.837Z,3.70
2019-02-11T12:31:11.165Z,3.70
2019-02-11T12:33:41.657Z,3.80
2019-02-11T12:36:11.622Z,3.70
2019-02-11T12:38:41.518Z,3.70
2019-02-11T12:41:11.366Z,3.70
2019-02-11T12:43:41.354Z,3.70
2019-02-11T12:46:11.298Z,3.80
2019-02-11T12:48:41.744Z,3.80
2019-02-11T12:51:12.361Z,3.80
2019-02-11T12:53:42.722Z,3.80
2019-02-11T12:56:12.609Z,3.80
2019-02-11T12:58:42.614Z,3.90
2019-02-11T13:01:12.429Z,3.90
2019-02-11T13:03:42.922Z,4.00
2019-02-11T13:06:13.284Z,4.00
2019-02-11T13:08:43.799Z,4.10
2019-02-11T13:11:13.650Z,4.10
2019-02-11T13:13:44.253Z,4.20
2019-02-11T13:16:15.358Z,4.30
2019-02-11T13:18:45.542Z,4.30
2019-02-11T13:21:16.272Z,4.30
2019-02-11T13:23:46.514Z,4.20
2019-02-11T13:26:16.529Z,4.20
2019-02-11T13:28:47.307Z,4.20
2019-02-11T13:31:17.863Z,4.20
2019-02-11T13:33:47.416Z,4.10
2019-02-11T13:36:17.939Z,4.10
2019-02-11T13:38:48.215Z,4.00
2019-02-11T13:41:18.503Z,4.00
2019-02-11T13:43:52.254Z,4.00
2019-02-11T13:46:22.679Z,4.00
2019-02-11T13:48:53.408Z,3.90
2019-02-11T13:51:23.985Z,3.90
2019-02-11T13:53:54.241Z,3.90
2019-02-11T13:56:43.694Z,4.00
2019-02-11T13:59:13.973Z,4.10
2019-02-11T14:01:44.565Z,4.10
2019-02-11T14:04:15.047Z,4.10
2019-02-11T14:06:45.121Z,4.10
2019-02-11T14:09:15.367Z,4.20
2019-02-11T14:11:45.969Z,4.20
2019-02-11T14:14:16.394Z,4.20
2019-02-11T14:16:46.789Z,4.30
2019-02-11T14:19:17.041Z,4.40
2019-02-11T14:21:47.749Z,4.50
2019-02-11T14:24:18.074Z,4.50
2019-02-11T14:26:48.680Z,4.50
2019-02-11T14:29:18.930Z,4.50
2019-02-11T14:31:49.592Z,4.50
2019-02-11T14:34:19.992Z,4.50
2019-02-11T14:36:50.606Z,4.50
2019-02-11T14:39:21.263Z,4.50
2019-02-11T14:41:51.264Z,4.50
2019-02-11T14:44:21.522Z,4.40
2019-02-11T14:46:51.867Z,4.50
2019-02-11T14:49:22.200Z,4.40
2019-02-11T14:51:52.698Z,4.40
2019-02-11T14:54:23.216Z,4.40
2019-02-11T14:56:53.468Z,4.30
2019-02-11T14:59:23.988Z,4.30
2019-02-11T15:01:54.501Z,4.30
2019-02-11T15:04:25.054Z,4.30
2019-02-11T15:06:56.541Z,4.30
2019-02-11T15:09:27.099Z,4.30
2019-02-11T15:11:57.082Z,4.20
2019-02-11T15:14:27.635Z,4.20
2019-02-11T15:16:58.126Z,4.20
2019-02-11T15:19:28.364Z,4.20
2019-02-11T15:21:58.847Z,4.20
2019-02-11T15:24:28.608Z,4.30
2019-02-11T15:26:58.762Z,4.40
2019-02-11T15:29:29.314Z,4.40
2019-02-11T15:31:59.518Z,4.30
2019-02-11T15:34:30.131Z,4.30
2019-02-11T15:37:00.622Z,4.30
2019-02-11T15:39:31.163Z,4.20
2019-02-11T15:42:01.698Z,4.20
2019-02-11T15:44:32.762Z,4.20
2019-02-11T15:47:03.377Z,4.20
2019-02-11T15:49:33.710Z,4.10
2019-02-11T15:52:04.028Z,4.10
2019-02-11T15:54:34.382Z,4.10
2019-02-11T15:57:04.193Z,4.10
2019-02-11T15:59:34.736Z,4.00
2019-02-11T16:02:04.909Z,4.00
2019-02-11T16:04:34.882Z,4.00
2019-02-11T16:07:05.282Z,3.90
2019-02-11T16:09:35.508Z,3.90
2019-02-11T16:12:05.825Z,3.80
2019-02-11T16:14:36.468Z,3.80
2019-02-11T16:17:06.711Z,3.80
2019-02-11T16:19:37.249Z,3.70
2019-02-11T16:22:07.882Z,3.70
2019-02-11T16:24:38.475Z,3.70
2019-02-11T16:27:08.716Z,3.70
2019-02-11T16:29:39.333Z,3.70
2019-02-11T16:32:09.661Z,3.70
2019-02-11T16:34:40.322Z,3.70
2019-02-11T16:37:10.926Z,3.70
2019-02-11T16:39:40.782Z,3.70
2019-02-11T16:42:11.008Z,3.70
2019-02-11T16:44:41.540Z,3.70
2019-02-11T16:47:12.032Z,3.70
2019-02-11T16:49:42.707Z,3.70
2019-02-11T16:52:12.930Z,3.70
2019-02-11T16:54:43.166Z,3.70
2019-02-11T16:57:13.453Z,3.70
2019-02-11T16:59:43.646Z,3.70
2019-02-11T17:02:14.213Z,3.70
2019-02-11T17:04:44.672Z,3.70
2019-02-11T17:07:14.916Z,3.60
2019-02-11T17:09:45.120Z,3.60
2019-02-11T17:12:15.433Z,3.60
2019-02-11T17:14:46.054Z,3.60
2019-02-11T17:17:16.221Z,3.60
2019-02-11T17:19:46.904Z,3.60
2019-02-11T17:22:17.495Z,3.60
2019-02-11T17:24:47.708Z,3.60
2019-02-11T17:27:17.918Z,3.60
2019-02-11T17:29:48.510Z,3.60
2019-02-11T17:32:18.672Z,3.60
2019-02-11T17:34:48.603Z,3.70
2019-02-11T17:37:19.070Z,3.70
2019-02-11T17:39:49.431Z,3.60
2019-02-11T17:42:19.626Z,3.60
2019-02-11T17:44:50.156Z,3.70
2019-02-11T17:47:20.089Z,3.60
2019-02-11T17:49:50.690Z,3.60
2019-02-11T17:52:21.000Z,3.60
2019-02-11T17:54:51.463Z,3.60
2019-02-11T17:57:22.034Z,3.60
2019-02-11T17:59:52.247Z,3.60
2019-02-11T18:02:22.608Z,3.60
2019-02-11T18:04:57.062Z,3.60
2019-02-11T18:07:27.460Z,3.60
2019-02-11T18:09:57.821Z,3.60
2019-02-11T18:12:28.226Z,3.60
2019-02-11T18:14:58.666Z,3.60
2019-02-11T18:17:30.184Z,3.60
2019-02-11T18:20:00.636Z,3.60
2019-02-11T18:22:31.642Z,3.60
2019-02-11T18:25:02.240Z,3.60
2019-02-11T18:27:34.568Z,3.50
2019-02-11T18:30:06.614Z,3.50
2019-02-11T18:32:37.220Z,3.50
2019-02-11T18:35:28.241Z,3.50
2019-02-11T18:37:58.735Z,3.50
2019-02-11T18:40:30.628Z,3.60
2019-02-11T18:43:01.162Z,3.50
2019-02-11T18:45:31.424Z,3.50
2019-02-11T18:48:01.661Z,3.60
2019-02-11T18:50:50.918Z,3.50
2019-02-11T18:53:21.614Z,3.50
2019-02-11T18:55:52.213Z,3.50
2019-02-11T18:58:22.785Z,3.50
2019-02-11T19:00:53.316Z,3.50
2019-02-11T19:03:23.668Z,3.50
2019-02-11T19:05:54.254Z,3.50
2019-02-11T19:08:24.782Z,3.50
2019-02-11T19:10:55.432Z,3.60
2019-02-11T19:13:26.005Z,3.60
2019-02-11T19:15:56.238Z,3.70
2019-02-11T19:18:26.452Z,3.70
2019-02-11T19:20:56.888Z,3.60
2019-02-11T19:23:27.559Z,3.70
2019-02-11T19:25:57.538Z,3.70
2019-02-11T19:28:27.712Z,3.70
2019-02-11T19:30:57.345Z,3.60
2019-02-11T19:33:27.992Z,3.60
2019-02-11T19:35:58.521Z,3.60
2019-02-11T19:38:29.014Z,3.60
2019-02-11T19:40:59.590Z,3.60
2019-02-11T19:43:30.182Z,3.60
2019-02-11T19:46:00.421Z,3.50
2019-02-11T19:48:30.692Z,3.60
2019-02-11T19:51:00.581Z,3.60
2019-02-11T19:53:31.104Z,3.60
2019-02-11T19:56:01.670Z,3.50
2019-02-11T19:58:32.280Z,3.50
2019-02-11T20:01:02.486Z,3.40
2019-02-11T20:03:32.950Z,3.40
2019-02-11T20:06:03.520Z,3.40
2019-02-11T20:08:34.092Z,3.30
2019-02-11T20:11:04.747Z,3.30
2019-02-11T20:13:34.682Z,3.20
2019-02-11T20:16:05.165Z,3.10
2019-02-11T20:18:35.856Z,3.10
2019-02-11T20:21:06.311Z,3.10
2019-02-11T20:23:55.224Z,3.10
2019-02-11T20:26:25.731Z,3.00
2019-02-11T20:28:56.404Z,3.00
2019-02-11T20:31:26.666Z,3.00
2019-02-11T20:33:56.883Z,3.00
2019-02-11T20:36:27.170Z,3.00
2019-02-11T20:38:57.680Z,3.00
2019-02-11T20:41:28.243Z,3.00
2019-02-11T20:43:57.767Z,2.90
2019-02-11T20:46:28.346Z,2.90
2019-02-11T20:48:58.591Z,2.90
2019-02-11T20:51:29.201Z,2.90
2019-02-11T20:54:00.034Z,2.90
2019-02-11T20:56:30.612Z,2.90
2019-02-11T20:59:01.254Z,2.80
2019-02-11T21:01:31.912Z,2.90
2019-02-11T21:04:02.369Z,2.80
2019-02-11T21:06:32.936Z,2.80
2019-02-11T21:09:05.007Z,2.80
2019-02-11T21:11:35.534Z,2.80
2019-02-11T21:14:05.856Z,2.80
2019-02-11T21:16:36.509Z,2.80
2019-02-11T21:19:07.063Z,2.80
2019-02-11T21:21:36.910Z,2.80
2019-02-11T21:24:07.577Z,2.80
2019-02-11T21:26:37.765Z,2.70
2019-02-11T21:29:07.720Z,2.70
2019-02-11T21:31:37.972Z,2.60
2019-02-11T21:34:08.644Z,2.50
2019-02-11T21:36:39.022Z,2.40
2019-02-11T21:39:09.990Z,2.40
2019-02-11T21:41:40.550Z,2.30
2019-02-11T21:44:10.402Z,2.30
2019-02-11T21:46:40.961Z,2.30
2019-02-11T21:49:11.152Z,2.30
2019-02-11T21:51:41.683Z,2.30
2019-02-11T21:54:12.324Z,2.30
2019-02-11T21:56:42.279Z,2.20
2019-02-11T21:59:12.801Z,2.20
2019-02-11T22:01:43.363Z,2.20
2019-02-11T22:04:13.909Z,2.20
2019-02-11T22:06:45.420Z,2.20
2019-02-11T22:09:16.378Z,2.20
2019-02-11T22:11:46.802Z,2.20
2019-02-11T22:14:17.030Z,2.20
2019-02-11T22:16:47.316Z,2.30
2019-02-11T22:19:17.133Z,2.20
2019-02-11T22:21:47.694Z,2.30
2019-02-11T22:24:18.150Z,2.30
2019-02-11T22:26:48.687Z,2.20
2019-02-11T22:29:19.045Z,2.20
2019-02-11T22:31:49.521Z,2.20
2019-02-11T22:34:19.692Z,2.20
2019-02-11T22:36:50.438Z,2.20
2019-02-11T22:39:20.933Z,2.20
2019-02-11T22:41:51.524Z,2.10
2019-02-11T22:44:22.053Z,2.10
2019-02-11T22:46:52.508Z,2.00
2019-02-11T22:49:22.731Z,2.10
2019-02-11T22:51:53.230Z,2.00
2019-02-11T22:54:23.583Z,2.00
2019-02-11T22:56:53.850Z,2.00
2019-02-11T22:59:24.174Z,2.10
2019-02-11T23:01:54.787Z,2.10
2019-02-11T23:04:25.479Z,2.10
2019-02-11T23:06:55.999Z,2.10
2019-02-11T23:09:26.188Z,2.10
2019-02-11T23:11:56.537Z,2.20
2019-02-11T23:14:26.744Z,2.10
2019-02-11T23:16:57.278Z,2.20
2019-02-11T23:19:27.857Z,2.10
2019-02-11T23:21:57.925Z,2.10
2019-02-11T23:24:28.208Z,2.10
2019-02-11T23:26:58.392Z,2.10
2019-02-11T23:29:29.017Z,2.10
2019-02-11T23:31:59.667Z,2.10
2019-02-11T23:34:29.506Z,2.20
2019-02-11T23:37:00.127Z,2.20
2019-02-11T23:39:30.435Z,2.20
2019-02-11T23:42:00.417Z,2.20
2019-02-11T23:44:30.939Z,2.20
2019-02-11T23:47:01.473Z,2.20
2019-02-11T23:49:31.695Z,2.20
2019-02-11T23:52:02.181Z,2.20
2019-02-11T23:54:32.836Z,2.20
2019-02-11T23:57:03.012Z,2.20
2019-02-11T23:59:33.816Z,2.20
